Time;durP1;ratioP1;P1;durP2;ratioP2;P2;SDS_P1;SDS_P2;PMS_P1;PMS_P2;Temp;Humidity;BMP_temperature;BMP_pressure;BME280_temperature;BME280_humidity;BME280_pressure;Samples;Min_cycle;Max_cycle;Signal;HPM_P1;HPM_P2
2021/06/23 00:00:00;;;;;;;29.40;22.00;;;;;;;;;;347708;28;1352;-68
2021/06/23 00:00:12;;;;;;;30.15;22.45;;;;;;;;;;348010;28;1227;-68
2021/06/23 00:00:28;;;;;;;31.05;23.52;;;;;;;;;;347944;28;1050;-68
2021/06/23 00:00:40;;;;;;;30.98;23.95;;;;;;;;;;345822;28;61366;-68
2021/06/23 00:00:52;;;;;;;30.75;23.85;;;;;;;;;;347887;28;1273;-68
2021/06/23 00:01:04;;;;;;;30.50;23.70;;;;;;;;;;348013;28;1106;-68
2021/06/23 00:01:16;;;;;;;31.10;24.00;;;;;;;;;;347776;28;1229;-68
2021/06/23 00:01:29;;;;;;;30.80;24.27;;;;;;;;;;349063;28;1209;-67
2021/06/23 00:01:41;;;;;;;29.75;23.38;;;;;;;;;;347820;28;1216;-68
2021/06/23 00:01:53;;;;;;;29.13;22.63;;;;;;;;;;347939;28;1236;-68
2021/06/23 00:02:05;;;;;;;29.42;22.77;;;;;;;;;;347827;28;1098;-68
2021/06/23 00:02:17;;;;;;;29.98;22.83;;;;;;;;;;349572;28;1636;-68
2021/06/23 00:02:29;;;;;;;30.38;22.85;;;;;;;;;;349380;28;1668;-68
2021/06/23 00:02:42;;;;;;;30.23;23.27;;;;;;;;;;349266;28;940;-68
2021/06/23 00:02:54;;;;;;;29.60;23.58;;;;;;;;;;349161;28;1011;-68
2021/06/23 00:03:06;;;;;;;28.90;23.20;;;;;;;;;;349257;28;1110;-68
2021/06/23 00:03:18;;;;;;;27.70;22.08;;;;;;;;;;349265;28;1117;-67
2021/06/23 00:03:30;;;;;;;28.48;22.33;;;;;;;;;;349106;28;1088;-69
2021/06/23 00:03:42;;;;;;;29.73;23.42;;;;;;;;;;349091;28;1205;-68
2021/06/23 00:03:55;;;;;;;29.48;23.10;;;;;;;;;;349044;28;989;-68
2021/06/23 00:04:07;;;;;;;27.98;22.80;;;;;;;;;;349426;28;1298;-68
2021/06/23 00:04:19;;;;;;;28.45;23.00;;;;;;;;;;348479;28;1224;-68
2021/06/23 00:04:31;;;;;;;28.20;23.08;;;;;;;;;;347936;28;1146;-68
2021/06/23 00:04:44;;;;;;;28.80;23.10;;;;;;;;;;348075;28;1985;-69
2021/06/23 00:04:56;;;;;;;28.83;22.88;;;;;;;;;;348115;28;1058;-68
2021/06/23 00:05:09;;;;;;;28.30;22.17;;;;;;;;;;349330;28;1079;-68
2021/06/23 00:05:21;;;;;;;28.40;22.45;;;;;;;;;;349186;28;1073;-68
2021/06/23 00:05:34;;;;;;;27.92;23.00;;;;;;;;;;349226;28;1200;-68
2021/06/23 00:05:46;;;;;;;28.38;23.08;;;;;;;;;;349386;28;1247;-68
2021/06/23 00:05:58;;;;;;;27.58;22.85;;;;;;;;;;349221;28;1193;-67
2021/06/23 00:06:10;;;;;;;26.70;23.35;;;;;;;;;;349376;28;1156;-68
2021/06/23 00:06:22;;;;;;;27.90;23.85;;;;;;;;;;348907;28;1400;-68
2021/06/23 00:06:34;;;;;;;28.77;23.58;;;;;;;;;;349158;28;1182;-68
2021/06/23 00:06:47;;;;;;;29.58;23.08;;;;;;;;;;349167;28;1093;-68
2021/06/23 00:06:59;;;;;;;30.08;23.02;;;;;;;;;;349299;28;998;-68
2021/06/23 00:07:11;;;;;;;28.60;22.27;;;;;;;;;;348341;28;1683;-69
2021/06/23 00:07:23;;;;;;;27.65;22.05;;;;;;;;;;347028;28;1693;-68
2021/06/23 00:07:35;;;;;;;27.73;21.95;;;;;;;;;;349157;28;1145;-68
2021/06/23 00:07:47;;;;;;;28.20;22.00;;;;;;;;;;349364;28;1092;-68
2021/06/23 00:07:59;;;;;;;29.20;22.38;;;;;;;;;;349089;28;1140;-68
2021/06/23 00:08:12;;;;;;;28.48;22.48;;;;;;;;;;349228;28;1066;-68
2021/06/23 00:08:24;;;;;;;28.70;22.60;;;;;;;;;;349357;28;1072;-67
2021/06/23 00:08:36;;;;;;;29.70;22.90;;;;;;;;;;347893;28;1902;-67
2021/06/23 00:08:48;;;;;;;31.08;23.20;;;;;;;;;;347722;28;982;-68
2021/06/23 00:09:00;;;;;;;32.47;23.52;;;;;;;;;;347954;28;1041;-68
2021/06/23 00:09:13;;;;;;;31.70;23.50;;;;;;;;;;347749;28;1026;-68
2021/06/23 00:09:25;;;;;;;30.27;22.90;;;;;;;;;;348820;28;1070;-67
2021/06/23 00:09:38;;;;;;;31.20;23.05;;;;;;;;;;348958;28;1104;-68
2021/06/23 00:09:50;;;;;;;31.05;23.33;;;;;;;;;;349256;28;1192;-68
2021/06/23 00:10:03;;;;;;;30.52;23.08;;;;;;;;;;349213;28;1090;-68
2021/06/23 00:10:15;;;;;;;28.55;22.98;;;;;;;;;;349277;28;1143;-68
2021/06/23 00:10:28;;;;;;;28.67;23.45;;;;;;;;;;349318;28;1083;-68
2021/06/23 00:10:40;;;;;;;28.33;22.92;;;;;;;;;;349209;28;1074;-67
2021/06/23 00:10:52;;;;;;;28.26;22.78;;;;;;;;;;349464;28;1094;-68
2021/06/23 00:11:05;;;;;;;30.55;23.40;;;;;;;;;;349135;28;1133;-67
2021/06/23 00:11:17;;;;;;;29.35;23.17;;;;;;;;;;349353;28;1292;-67
2021/06/23 00:11:39;;;;;;;28.90;23.15;;;;;;;;;;349389;28;1034;-67
2021/06/23 00:11:53;;;;;;;31.60;23.95;;;;;;;;;;347173;28;63285;-67
2021/06/23 00:12:05;;;;;;;31.40;23.88;;;;;;;;;;349184;28;1069;-68
2021/06/23 00:12:20;;;;;;;31.05;23.83;;;;;;;;;;349236;28;1092;-67
2021/06/23 00:12:32;;;;;;;29.60;23.90;;;;;;;;;;347993;28;39784;-67
2021/06/23 00:12:45;;;;;;;29.95;23.67;;;;;;;;;;349343;28;1200;-67
2021/06/23 00:13:03;;;;;;;30.67;22.98;;;;;;;;;;348066;28;1884;-67
2021/06/23 00:13:16;;;;;;;32.03;23.83;;;;;;;;;;344534;28;62219;-68
2021/06/23 00:13:31;;;;;;;32.42;24.40;;;;;;;;;;346737;28;1071;-67
2021/06/23 00:13:43;;;;;;;30.38;23.55;;;;;;;;;;344436;28;64063;-69
2021/06/23 00:13:55;;;;;;;28.77;22.48;;;;;;;;;;346658;28;1107;-67
2021/06/23 00:14:08;;;;;;;29.40;22.27;;;;;;;;;;346550;28;1055;-67
2021/06/23 00:14:20;;;;;;;31.00;22.73;;;;;;;;;;346741;28;1050;-67
2021/06/23 00:14:33;;;;;;;32.35;23.30;;;;;;;;;;347976;28;1040;-67
2021/06/23 00:14:45;;;;;;;31.55;23.42;;;;;;;;;;347758;28;1147;-68
2021/06/23 00:14:57;;;;;;;30.52;22.95;;;;;;;;;;347800;28;1055;-67
2021/06/23 00:15:25;;;;;;;29.63;22.05;;;;;;;;;;345784;28;62160;-67
2021/06/23 00:15:37;;;;;;;29.85;22.52;;;;;;;;;;347824;28;1219;-67
2021/06/23 00:15:49;;;;;;;31.77;23.27;;;;;;;;;;347870;28;1176;-67
2021/06/23 00:16:05;;;;;;;33.15;23.15;;;;;;;;;;347765;28;1096;-68
2021/06/23 00:16:17;;;;;;;33.00;23.10;;;;;;;;;;345226;28;40045;-67
2021/06/23 00:16:29;;;;;;;31.00;23.35;;;;;;;;;;345157;28;1156;-68
2021/06/23 00:16:42;;;;;;;29.38;23.48;;;;;;;;;;345018;28;1126;-67
2021/06/23 00:16:54;;;;;;;28.05;22.55;;;;;;;;;;345046;28;1348;-67
2021/06/23 00:17:06;;;;;;;28.05;22.25;;;;;;;;;;345266;28;1292;-68
2021/06/23 00:17:19;;;;;;;26.48;21.90;;;;;;;;;;345245;28;1049;-68
2021/06/23 00:17:31;;;;;;;25.80;22.40;;;;;;;;;;345181;28;1068;-67
2021/06/23 00:17:43;;;;;;;26.10;22.27;;;;;;;;;;345235;28;1162;-67
2021/06/23 00:17:56;;;;;;;27.67;22.73;;;;;;;;;;345198;28;1000;-67
2021/06/23 00:18:09;;;;;;;29.38;23.40;;;;;;;;;;345161;28;994;-67
2021/06/23 00:18:21;;;;;;;29.40;23.02;;;;;;;;;;346274;28;1046;-67
2021/06/23 00:18:33;;;;;;;29.73;23.02;;;;;;;;;;347430;28;983;-67
2021/06/23 00:18:46;;;;;;;28.52;22.90;;;;;;;;;;347731;28;1094;-68
2021/06/23 00:18:58;;;;;;;27.63;22.08;;;;;;;;;;346716;28;1105;-67
2021/06/23 00:19:10;;;;;;;27.10;21.52;;;;;;;;;;346592;28;1051;-67
2021/06/23 00:19:23;;;;;;;28.44;21.82;;;;;;;;;;346559;28;1392;-68
2021/06/23 00:19:35;;;;;;;30.48;22.65;;;;;;;;;;346738;28;1124;-67
2021/06/23 00:19:47;;;;;;;30.15;22.73;;;;;;;;;;346664;28;1027;-69
2021/06/23 00:19:59;;;;;;;29.25;22.40;;;;;;;;;;346586;28;1158;-67
2021/06/23 00:20:12;;;;;;;29.13;21.90;;;;;;;;;;346482;28;1164;-67
2021/06/23 00:20:25;;;;;;;27.58;22.15;;;;;;;;;;346602;28;1038;-67
2021/06/23 00:20:38;;;;;;;28.17;22.05;;;;;;;;;;347839;28;1106;-69
2021/06/23 00:20:50;;;;;;;28.83;22.08;;;;;;;;;;347176;28;17139;-67
2021/06/23 00:21:03;;;;;;;29.20;22.23;;;;;;;;;;347955;28;1132;-67
2021/06/23 00:21:15;;;;;;;30.60;21.65;;;;;;;;;;347791;28;1100;-67
2021/06/23 00:21:27;;;;;;;29.63;21.98;;;;;;;;;;347803;28;1355;-67
2021/06/23 00:21:39;;;;;;;30.05;22.52;;;;;;;;;;347792;28;1043;-67
2021/06/23 00:21:51;;;;;;;30.45;22.42;;;;;;;;;;347881;28;1087;-67
2021/06/23 00:22:04;;;;;;;31.38;22.23;;;;;;;;;;347871;28;2070;-67
2021/06/23 00:22:16;;;;;;;30.10;22.42;;;;;;;;;;347779;28;1077;-68
2021/06/23 00:22:28;;;;;;;28.17;22.42;;;;;;;;;;346426;28;1129;-67
2021/06/23 00:22:40;;;;;;;28.02;22.02;;;;;;;;;;346544;28;1282;-68
2021/06/23 00:22:52;;;;;;;28.20;22.13;;;;;;;;;;346589;28;1213;-67
2021/06/23 00:23:05;;;;;;;28.60;21.95;;;;;;;;;;346519;28;1065;-67
2021/06/23 00:23:17;;;;;;;30.08;22.02;;;;;;;;;;346397;28;1070;-67
2021/06/23 00:23:29;;;;;;;30.63;22.13;;;;;;;;;;345337;28;1682;-67
2021/06/23 00:23:41;;;;;;;30.02;21.92;;;;;;;;;;345550;28;1748;-67
2021/06/23 00:23:53;;;;;;;27.52;21.52;;;;;;;;;;347942;28;1211;-67
2021/06/23 00:24:06;;;;;;;28.42;21.90;;;;;;;;;;347869;28;1090;-67
2021/06/23 00:24:18;;;;;;;29.65;22.00;;;;;;;;;;347910;28;1956;-67
2021/06/23 00:24:30;;;;;;;30.83;22.02;;;;;;;;;;348638;28;1044;-67
2021/06/23 00:24:42;;;;;;;30.35;22.25;;;;;;;;;;349262;28;1033;-68
2021/06/23 00:24:54;;;;;;;28.38;22.38;;;;;;;;;;349328;28;1037;-68
2021/06/23 00:25:07;;;;;;;27.02;21.67;;;;;;;;;;349212;28;1017;-68
2021/06/23 00:25:19;;;;;;;26.65;21.38;;;;;;;;;;349136;28;1156;-67
2021/06/23 00:25:32;;;;;;;27.90;21.70;;;;;;;;;;349409;28;1201;-67
2021/06/23 00:25:44;;;;;;;28.23;21.33;;;;;;;;;;349438;28;1097;-67
2021/06/23 00:25:56;;;;;;;29.60;21.40;;;;;;;;;;349353;28;1082;-68
2021/06/23 00:26:09;;;;;;;28.23;21.15;;;;;;;;;;349309;28;1589;-67
2021/06/23 00:26:21;;;;;;;30.05;21.52;;;;;;;;;;349393;28;1993;-68
2021/06/23 00:26:34;;;;;;;31.95;21.95;;;;;;;;;;349542;28;1177;-67
2021/06/23 00:26:46;;;;;;;30.05;21.65;;;;;;;;;;349650;28;1487;-67
2021/06/23 00:26:58;;;;;;;27.92;21.60;;;;;;;;;;349384;28;1296;-68
2021/06/23 00:27:10;;;;;;;26.10;21.17;;;;;;;;;;349468;28;1997;-67
2021/06/23 00:27:22;;;;;;;26.30;20.88;;;;;;;;;;349424;28;1084;-67
2021/06/23 00:27:34;;;;;;;25.80;20.75;;;;;;;;;;349475;28;1093;-68
2021/06/23 00:27:47;;;;;;;26.20;20.85;;;;;;;;;;349413;28;1093;-67
2021/06/23 00:27:59;;;;;;;24.90;20.85;;;;;;;;;;349356;28;1156;-68
2021/06/23 00:28:11;;;;;;;27.33;20.50;;;;;;;;;;349572;28;1085;-68
2021/06/23 00:28:23;;;;;;;27.00;19.80;;;;;;;;;;349328;28;1241;-67
2021/06/23 00:28:35;;;;;;;26.02;19.73;;;;;;;;;;349288;28;1193;-68
2021/06/23 00:28:47;;;;;;;27.85;20.10;;;;;;;;;;350496;28;1166;-68
2021/06/23 00:29:00;;;;;;;28.35;20.20;;;;;;;;;;350642;28;987;-68
2021/06/23 00:29:12;;;;;;;27.42;20.48;;;;;;;;;;350644;28;1164;-67
2021/06/23 00:29:24;;;;;;;26.73;20.58;;;;;;;;;;350517;28;1094;-67
2021/06/23 00:29:36;;;;;;;27.55;21.05;;;;;;;;;;350431;28;1054;-67
2021/06/23 00:29:48;;;;;;;27.67;20.90;;;;;;;;;;350637;28;1092;-67
2021/06/23 00:30:00;;;;;;;27.20;21.25;;;;;;;;;;350559;28;1101;-67
2021/06/23 00:30:13;;;;;;;27.35;21.55;;;;;;;;;;350605;28;1132;-68
2021/06/23 00:30:25;;;;;;;28.08;21.35;;;;;;;;;;349303;28;1009;-67
2021/06/23 00:30:38;;;;;;;28.67;20.95;;;;;;;;;;346364;28;1150;-68
2021/06/23 00:30:50;;;;;;;28.73;21.13;;;;;;;;;;346359;28;1019;-67
2021/06/23 00:31:02;;;;;;;29.17;21.50;;;;;;;;;;346440;28;1540;-67
2021/06/23 00:31:14;;;;;;;29.15;21.52;;;;;;;;;;346550;28;1075;-68
2021/06/23 00:31:27;;;;;;;27.08;21.63;;;;;;;;;;346622;28;1086;-68
2021/06/23 00:31:39;;;;;;;25.70;21.52;;;;;;;;;;346374;28;990;-67
2021/06/23 00:31:52;;;;;;;26.15;21.30;;;;;;;;;;346529;28;1220;-67
2021/06/23 00:32:04;;;;;;;26.42;20.88;;;;;;;;;;346482;28;1202;-67
2021/06/23 00:32:18;;;;;;;28.90;21.33;;;;;;;;;;346451;28;1181;-67
2021/06/23 00:32:31;;;;;;;27.45;20.95;;;;;;;;;;347227;28;16685;-66
2021/06/23 00:32:45;;;;;;;26.50;20.50;;;;;;;;;;347905;28;1321;-67
2021/06/23 00:33:04;;;;;;;27.08;20.73;;;;;;;;;;347311;28;18152;-67
2021/06/23 00:33:19;;;;;;;25.95;21.10;;;;;;;;;;345706;28;62400;-71
2021/06/23 00:33:32;;;;;;;27.35;20.92;;;;;;;;;;345212;28;39728;-67
2021/06/23 00:33:46;;;;;;;28.10;21.40;;;;;;;;;;346526;28;942;-68
2021/06/23 00:34:01;;;;;;;26.95;21.35;;;;;;;;;;346046;28;17284;-68
2021/06/23 00:34:15;;;;;;;27.30;20.98;;;;;;;;;;346144;28;39715;-69
2021/06/23 00:34:28;;;;;;;27.27;21.20;;;;;;;;;;347265;28;17011;-68
2021/06/23 00:34:40;;;;;;;29.27;20.85;;;;;;;;;;347957;28;1193;-68
2021/06/23 00:34:52;;;;;;;30.60;21.25;;;;;;;;;;348011;28;1029;-68
2021/06/23 00:35:04;;;;;;;29.60;20.92;;;;;;;;;;347847;28;1089;-68
2021/06/23 00:35:16;;;;;;;27.77;20.92;;;;;;;;;;347833;28;1149;-67
2021/06/23 00:35:28;;;;;;;27.33;20.88;;;;;;;;;;347825;28;1217;-68
2021/06/23 00:35:41;;;;;;;25.90;21.17;;;;;;;;;;347725;28;1078;-67
2021/06/23 00:35:53;;;;;;;27.63;22.02;;;;;;;;;;347835;28;1126;-67
2021/06/23 00:36:06;;;;;;;29.00;22.88;;;;;;;;;;347750;28;1214;-67
2021/06/23 00:36:18;;;;;;;29.90;23.33;;;;;;;;;;347696;28;1174;-68
2021/06/23 00:36:31;;;;;;;30.20;23.60;;;;;;;;;;347820;28;1384;-68
2021/06/23 00:36:43;;;;;;;30.33;23.00;;;;;;;;;;347868;28;1192;-68
2021/06/23 00:36:55;;;;;;;29.13;21.73;;;;;;;;;;347694;28;1087;-67
2021/06/23 00:37:07;;;;;;;28.65;21.13;;;;;;;;;;347778;28;1113;-68
2021/06/23 00:37:19;;;;;;;28.85;21.15;;;;;;;;;;347738;28;1351;-68
2021/06/23 00:37:31;;;;;;;28.23;21.48;;;;;;;;;;347769;28;992;-68
2021/06/23 00:37:43;;;;;;;28.88;22.48;;;;;;;;;;348197;28;1074;-67
2021/06/23 00:37:55;;;;;;;29.85;23.15;;;;;;;;;;348129;28;1185;-69
2021/06/23 00:38:08;;;;;;;30.05;22.65;;;;;;;;;;347751;28;1042;-68
2021/06/23 00:38:20;;;;;;;29.98;21.90;;;;;;;;;;347880;28;1108;-68
2021/06/23 00:38:32;;;;;;;28.60;21.73;;;;;;;;;;347952;28;1089;-67
2021/06/23 00:38:44;;;;;;;27.50;21.67;;;;;;;;;;347965;28;1125;-68
2021/06/23 00:38:57;;;;;;;27.27;21.77;;;;;;;;;;347901;28;1091;-67
2021/06/23 00:39:09;;;;;;;26.77;21.45;;;;;;;;;;347858;28;1429;-68
2021/06/23 00:39:22;;;;;;;26.67;20.58;;;;;;;;;;347964;28;1237;-69
2021/06/23 00:39:34;;;;;;;28.20;20.25;;;;;;;;;;347891;28;1105;-67
2021/06/23 00:39:46;;;;;;;27.08;20.83;;;;;;;;;;346340;28;1044;-67
2021/06/23 00:39:59;;;;;;;26.67;20.02;;;;;;;;;;344940;28;1098;-68
2021/06/23 00:40:11;;;;;;;26.88;20.08;;;;;;;;;;345973;28;1208;-67
2021/06/23 00:40:24;;;;;;;27.60;21.35;;;;;;;;;;346558;28;1014;-69
2021/06/23 00:40:37;;;;;;;28.73;21.75;;;;;;;;;;346665;28;1093;-67
2021/06/23 00:40:51;;;;;;;28.90;20.95;;;;;;;;;;344586;28;17080;-68
2021/06/23 00:41:03;;;;;;;28.48;20.95;;;;;;;;;;344898;28;1078;-67
2021/06/23 00:41:19;;;;;;;26.92;20.67;;;;;;;;;;345026;28;1096;-67
2021/06/23 00:41:31;;;;;;;27.75;20.50;;;;;;;;;;342894;28;63307;-68
2021/06/23 00:41:43;;;;;;;28.70;20.88;;;;;;;;;;345434;28;1025;-69
2021/06/23 00:41:55;;;;;;;28.52;21.00;;;;;;;;;;346552;28;1177;-67
2021/06/23 00:42:10;;;;;;;29.90;21.15;;;;;;;;;;347237;28;17082;-67
2021/06/23 00:42:22;;;;;;;29.85;21.25;;;;;;;;;;347799;28;995;-68
2021/06/23 00:42:34;;;;;;;27.10;20.95;;;;;;;;;;347638;28;1062;-69
2021/06/23 00:42:47;;;;;;;25.20;20.35;;;;;;;;;;347932;28;1054;-67
2021/06/23 00:42:59;;;;;;;26.20;20.35;;;;;;;;;;349183;28;1080;-67
2021/06/23 00:43:12;;;;;;;27.23;20.90;;;;;;;;;;349186;28;1101;-66
2021/06/23 00:43:24;;;;;;;29.58;20.75;;;;;;;;;;349245;28;1272;-68
2021/06/23 00:43:36;;;;;;;28.95;19.58;;;;;;;;;;349037;28;1095;-67
2021/06/23 00:43:49;;;;;;;26.77;19.10;;;;;;;;;;349026;28;1183;-68
2021/06/23 00:44:02;;;;;;;25.50;19.38;;;;;;;;;;349316;28;1085;-67
2021/06/23 00:44:14;;;;;;;25.88;19.65;;;;;;;;;;349307;28;1115;-67
2021/06/23 00:44:28;;;;;;;26.15;19.67;;;;;;;;;;347894;28;1015;-68
2021/06/23 00:44:40;;;;;;;25.73;19.73;;;;;;;;;;347125;28;17020;-67
2021/06/23 00:44:53;;;;;;;25.75;19.73;;;;;;;;;;348097;28;1664;-68
2021/06/23 00:45:06;;;;;;;27.10;20.33;;;;;;;;;;348134;28;1652;-68
2021/06/23 00:45:19;;;;;;;26.80;20.48;;;;;;;;;;346639;28;1103;-67
2021/06/23 00:45:32;;;;;;;26.50;20.20;;;;;;;;;;346309;28;1146;-68
2021/06/23 00:45:45;;;;;;;26.25;19.90;;;;;;;;;;346607;28;1086;-69
2021/06/23 00:45:57;;;;;;;25.65;19.85;;;;;;;;;;346527;28;1021;-68
2021/06/23 00:46:10;;;;;;;25.67;19.70;;;;;;;;;;346597;28;1111;-68
2021/06/23 00:46:41;;;;;;;26.40;20.10;;;;;;;;;;345564;28;62174;-67
2021/06/23 00:46:53;;;;;;;27.38;20.27;;;;;;;;;;347924;28;1071;-67
2021/06/23 00:47:06;;;;;;;28.25;19.75;;;;;;;;;;347794;28;1085;-68
2021/06/23 00:47:18;;;;;;;27.85;19.67;;;;;;;;;;347714;28;1109;-68
2021/06/23 00:47:31;;;;;;;27.17;19.75;;;;;;;;;;348028;28;1173;-68
2021/06/23 00:47:47;;;;;;;27.05;20.38;;;;;;;;;;348021;28;1014;-68
2021/06/23 00:48:00;;;;;;;27.23;19.92;;;;;;;;;;345218;28;86658;-68
2021/06/23 00:48:21;;;;;;;26.50;19.85;;;;;;;;;;349264;28;1292;-68
2021/06/23 00:48:33;;;;;;;27.67;20.27;;;;;;;;;;347099;28;64113;-68
2021/06/23 00:48:46;;;;;;;27.90;20.42;;;;;;;;;;349209;28;998;-68
2021/06/23 00:48:59;;;;;;;28.85;20.38;;;;;;;;;;349294;28;1354;-68
2021/06/23 00:49:13;;;;;;;27.52;19.67;;;;;;;;;;348623;28;18062;-68
2021/06/23 00:49:29;;;;;;;27.40;20.08;;;;;;;;;;348860;28;1172;-68
2021/06/23 00:49:41;;;;;;;27.88;20.65;;;;;;;;;;347083;28;62578;-68
2021/06/23 00:49:53;;;;;;;26.95;20.55;;;;;;;;;;349170;28;1058;-67
2021/06/23 00:50:07;;;;;;;25.65;20.30;;;;;;;;;;349265;28;1239;-68
2021/06/23 00:50:19;;;;;;;26.45;20.15;;;;;;;;;;347538;28;16963;-68
2021/06/23 00:50:33;;;;;;;30.26;20.90;;;;;;;;;;348161;28;1312;-68
2021/06/23 00:50:46;;;;;;;30.77;21.02;;;;;;;;;;348025;28;1091;-68
2021/06/23 00:50:59;;;;;;;29.92;21.00;;;;;;;;;;348041;28;1097;-68
2021/06/23 00:51:12;;;;;;;29.60;21.27;;;;;;;;;;347267;28;16612;-68
2021/06/23 00:51:25;;;;;;;27.98;21.38;;;;;;;;;;348152;28;1220;-68
2021/06/23 00:51:37;;;;;;;26.90;21.02;;;;;;;;;;348118;28;1174;-68
2021/06/23 00:51:49;;;;;;;26.70;20.75;;;;;;;;;;349150;28;1291;-68
2021/06/23 00:52:02;;;;;;;29.08;20.67;;;;;;;;;;349199;28;1185;-68
2021/06/23 00:52:14;;;;;;;29.35;20.65;;;;;;;;;;349199;28;1177;-67
2021/06/23 00:52:26;;;;;;;28.67;20.60;;;;;;;;;;349118;28;989;-68
2021/06/23 00:52:39;;;;;;;26.65;20.50;;;;;;;;;;349241;28;1089;-68
2021/06/23 00:52:52;;;;;;;25.45;20.45;;;;;;;;;;349254;28;1140;-68
2021/06/23 00:53:04;;;;;;;28.27;20.88;;;;;;;;;;349045;28;1149;-68
2021/06/23 00:53:16;;;;;;;28.77;20.65;;;;;;;;;;349317;28;1121;-67
2021/06/23 00:53:29;;;;;;;27.98;20.10;;;;;;;;;;349193;28;1092;-67
2021/06/23 00:53:41;;;;;;;27.38;19.98;;;;;;;;;;349339;28;1085;-67
2021/06/23 00:53:53;;;;;;;27.75;20.65;;;;;;;;;;348356;28;1131;-67
2021/06/23 00:54:10;;;;;;;27.92;21.02;;;;;;;;;;347950;28;1093;-67
2021/06/23 00:54:22;;;;;;;27.70;21.48;;;;;;;;;;345923;28;63947;-67
2021/06/23 00:54:34;;;;;;;27.05;21.50;;;;;;;;;;348052;28;1173;-68
2021/06/23 00:54:48;;;;;;;25.98;20.98;;;;;;;;;;349215;28;978;-67
2021/06/23 00:55:01;;;;;;;25.88;20.55;;;;;;;;;;348595;28;17155;-68
2021/06/23 00:55:22;;;;;;;28.50;20.63;;;;;;;;;;349078;28;1131;-67
2021/06/23 00:55:35;;;;;;;28.92;21.13;;;;;;;;;;345993;28;86573;-67
2021/06/23 00:55:50;;;;;;;26.52;21.13;;;;;;;;;;349006;28;1668;-67
2021/06/23 00:56:02;;;;;;;25.58;20.52;;;;;;;;;;347039;28;63924;-68
2021/06/23 00:56:15;;;;;;;25.55;20.23;;;;;;;;;;349235;28;1086;-67
2021/06/23 00:56:28;;;;;;;27.45;20.10;;;;;;;;;;349292;28;1098;-67
2021/06/23 00:56:41;;;;;;;28.15;20.35;;;;;;;;;;349165;28;1164;-67
2021/06/23 00:56:55;;;;;;;27.32;20.70;;;;;;;;;;347906;28;1359;-67
2021/06/23 00:57:07;;;;;;;28.00;21.27;;;;;;;;;;347434;28;16921;-67
2021/06/23 00:57:20;;;;;;;29.25;20.67;;;;;;;;;;348128;28;1006;-68
2021/06/23 00:57:32;;;;;;;28.27;20.27;;;;;;;;;;348168;28;1205;-68
2021/06/23 00:57:44;;;;;;;27.30;20.17;;;;;;;;;;348056;28;1164;-67
2021/06/23 00:57:56;;;;;;;27.42;21.05;;;;;;;;;;347901;28;1053;-67
2021/06/23 00:58:11;;;;;;;28.50;20.98;;;;;;;;;;348091;28;1112;-68
2021/06/23 00:58:24;;;;;;;27.13;20.33;;;;;;;;;;346816;28;40255;-68
2021/06/23 00:58:38;;;;;;;25.50;20.02;;;;;;;;;;347974;28;1296;-67
2021/06/23 00:58:50;;;;;;;27.95;20.30;;;;;;;;;;347563;28;16083;-67
2021/06/23 00:59:03;;;;;;;29.23;20.63;;;;;;;;;;348001;28;1049;-68
2021/06/23 00:59:15;;;;;;;28.38;20.10;;;;;;;;;;348082;28;1157;-67
2021/06/23 00:59:27;;;;;;;28.25;19.77;;;;;;;;;;348110;28;1176;-67
2021/06/23 00:59:40;;;;;;;27.88;20.17;;;;;;;;;;348146;28;1214;-68
2021/06/23 00:59:54;;;;;;;27.90;19.98;;;;;;;;;;348061;28;1224;-67
2021/06/23 01:00:07;;;;;;;29.02;20.05;;;;;;;;;;347502;28;17802;-67
2021/06/23 01:00:29;;;;;;;29.30;20.70;;;;;;;;;;348029;28;1022;-68
2021/06/23 01:00:42;;;;;;;27.05;21.13;;;;;;;;;;345584;28;62162;-68
2021/06/23 01:00:55;;;;;;;25.30;19.90;;;;;;;;;;347958;28;1566;-67
2021/06/23 01:01:08;;;;;;;26.20;19.33;;;;;;;;;;347545;28;18023;-68
2021/06/23 01:01:20;;;;;;;28.67;19.35;;;;;;;;;;347685;28;1226;-68
2021/06/23 01:01:33;;;;;;;28.30;20.02;;;;;;;;;;348139;28;1042;-67
2021/06/23 01:01:46;;;;;;;26.45;20.17;;;;;;;;;;348165;28;1133;-67
2021/06/23 01:01:58;;;;;;;25.90;19.83;;;;;;;;;;349358;28;1308;-68
2021/06/23 01:02:12;;;;;;;28.63;20.48;;;;;;;;;;349205;28;1005;-67
2021/06/23 01:02:24;;;;;;;29.75;20.85;;;;;;;;;;348440;28;17228;-67
2021/06/23 01:02:36;;;;;;;28.00;20.42;;;;;;;;;;349043;28;1054;-67
2021/06/23 01:02:49;;;;;;;28.85;20.67;;;;;;;;;;349125;28;1045;-67
2021/06/23 01:03:02;;;;;;;29.08;21.67;;;;;;;;;;348818;28;1055;-67
2021/06/23 01:03:14;;;;;;;27.58;21.42;;;;;;;;;;348767;28;1631;-68
2021/06/23 01:03:27;;;;;;;27.75;21.05;;;;;;;;;;349093;28;1327;-67
2021/06/23 01:03:39;;;;;;;26.63;20.30;;;;;;;;;;349116;28;1121;-67
2021/06/23 01:03:52;;;;;;;27.48;20.17;;;;;;;;;;349123;28;1105;-68
2021/06/23 01:04:05;;;;;;;27.85;20.75;;;;;;;;;;346099;28;17170;-67
2021/06/23 01:04:18;;;;;;;27.67;20.83;;;;;;;;;;346483;28;1453;-68
2021/06/23 01:04:30;;;;;;;29.50;20.58;;;;;;;;;;346574;28;1098;-67
2021/06/23 01:04:43;;;;;;;29.80;20.75;;;;;;;;;;346562;28;1153;-68
2021/06/23 01:04:55;;;;;;;28.88;21.17;;;;;;;;;;346607;28;1031;-67
2021/06/23 01:05:07;;;;;;;29.02;20.92;;;;;;;;;;346575;28;1182;-68
2021/06/23 01:05:20;;;;;;;27.77;20.30;;;;;;;;;;346714;28;1093;-67
2021/06/23 01:05:32;;;;;;;26.13;20.13;;;;;;;;;;347820;28;1210;-67
2021/06/23 01:05:45;;;;;;;25.78;20.70;;;;;;;;;;347766;28;1200;-68
2021/06/23 01:05:57;;;;;;;25.33;20.55;;;;;;;;;;347807;28;1090;-67
2021/06/23 01:06:09;;;;;;;27.58;21.02;;;;;;;;;;348670;28;1733;-68
2021/06/23 01:06:21;;;;;;;29.75;21.67;;;;;;;;;;349574;28;1541;-67
2021/06/23 01:06:34;;;;;;;28.52;21.52;;;;;;;;;;349122;28;2092;-68
2021/06/23 01:06:46;;;;;;;27.73;20.92;;;;;;;;;;349081;28;1148;-67
2021/06/23 01:06:59;;;;;;;27.58;20.33;;;;;;;;;;349037;28;1197;-67
2021/06/23 01:07:11;;;;;;;28.42;20.25;;;;;;;;;;349239;28;1199;-68
2021/06/23 01:07:23;;;;;;;27.48;20.10;;;;;;;;;;349016;28;1082;-69
2021/06/23 01:07:35;;;;;;;27.42;20.30;;;;;;;;;;348338;28;1106;-67
2021/06/23 01:07:48;;;;;;;26.40;20.17;;;;;;;;;;348079;28;1119;-67
2021/06/23 01:08:00;;;;;;;27.25;20.63;;;;;;;;;;347862;28;1095;-68
2021/06/23 01:08:12;;;;;;;27.60;20.67;;;;;;;;;;348142;28;1279;-67
2021/06/23 01:08:24;;;;;;;27.98;20.75;;;;;;;;;;347990;28;1250;-68
2021/06/23 01:08:37;;;;;;;29.60;20.27;;;;;;;;;;348099;28;1151;-68
2021/06/23 01:08:49;;;;;;;31.50;20.42;;;;;;;;;;347917;28;1123;-67
2021/06/23 01:09:02;;;;;;;32.25;20.83;;;;;;;;;;347893;28;1165;-68
2021/06/23 01:09:14;;;;;;;30.88;21.50;;;;;;;;;;347415;28;17475;-67
2021/06/23 01:09:27;;;;;;;30.02;21.52;;;;;;;;;;347861;28;1926;-68
2021/06/23 01:09:39;;;;;;;28.33;21.02;;;;;;;;;;348120;28;1018;-67
2021/06/23 01:09:54;;;;;;;28.23;20.33;;;;;;;;;;347784;28;1055;-68
2021/06/23 01:10:07;;;;;;;28.80;20.33;;;;;;;;;;346806;28;40119;-71
2021/06/23 01:10:19;;;;;;;28.22;20.14;;;;;;;;;;347980;28;1106;-68
2021/06/23 01:10:34;;;;;;;31.90;21.00;;;;;;;;;;348044;28;1062;-67
2021/06/23 01:10:46;;;;;;;29.98;21.40;;;;;;;;;;346763;28;40990;-68
2021/06/23 01:10:58;;;;;;;28.70;21.15;;;;;;;;;;347959;28;1270;-67
2021/06/23 01:11:11;;;;;;;29.46;20.92;;;;;;;;;;348063;28;1049;-68
2021/06/23 01:11:23;;;;;;;27.73;20.60;;;;;;;;;;348117;28;1226;-68
2021/06/23 01:11:41;;;;;;;27.42;21.00;;;;;;;;;;348048;28;1098;-68
2021/06/23 01:11:56;;;;;;;29.10;21.35;;;;;;;;;;345830;28;63856;-68
2021/06/23 01:12:16;;;;;;;27.55;21.35;;;;;;;;;;346693;28;41110;-67
2021/06/23 01:12:28;;;;;;;28.42;20.73;;;;;;;;;;345886;28;63755;-68
2021/06/23 01:12:44;;;;;;;29.00;20.74;;;;;;;;;;347955;28;1096;-68
2021/06/23 01:13:01;;;;;;;27.00;20.50;;;;;;;;;;345836;28;62730;-68
2021/06/23 01:13:18;;;;;;;29.13;21.08;;;;;;;;;;347103;28;62980;-68
2021/06/23 01:13:34;;;;;;;29.25;21.38;;;;;;;;;;347030;28;63623;-68
2021/06/23 01:14:06;;;;;;;29.27;20.75;;;;;;;;;;346952;28;64051;-67
2021/06/23 01:14:18;;;;;;;27.95;20.95;;;;;;;;;;347073;28;61870;-67
2021/06/23 01:14:35;;;;;;;29.15;20.85;;;;;;;;;;348996;28;1099;-68
2021/06/23 01:14:48;;;;;;;31.48;21.17;;;;;;;;;;347089;28;63680;-68
2021/06/23 01:15:01;;;;;;;29.55;21.33;;;;;;;;;;349195;28;1102;-68
2021/06/23 01:15:14;;;;;;;26.95;20.58;;;;;;;;;;348607;28;1144;-68
2021/06/23 01:15:27;;;;;;;27.98;20.65;;;;;;;;;;347322;28;16884;-68
2021/06/23 01:15:40;;;;;;;29.45;20.85;;;;;;;;;;347916;28;983;-68
2021/06/23 01:15:53;;;;;;;28.52;20.55;;;;;;;;;;347994;28;1938;-68
2021/06/23 01:16:08;;;;;;;29.85;20.55;;;;;;;;;;349214;28;1263;-68
2021/06/23 01:16:21;;;;;;;29.67;20.83;;;;;;;;;;347773;28;40869;-68
2021/06/23 01:16:34;;;;;;;29.85;21.08;;;;;;;;;;348999;28;2113;-68
2021/06/23 01:16:47;;;;;;;32.02;21.26;;;;;;;;;;348935;28;1735;-68
2021/06/23 01:17:01;;;;;;;32.20;20.48;;;;;;;;;;349779;28;1734;-68
2021/06/23 01:17:14;;;;;;;30.80;20.45;;;;;;;;;;347636;28;39676;-68
2021/06/23 01:17:30;;;;;;;28.08;21.23;;;;;;;;;;349162;28;1065;-68